TAF and METAR

METAR for Zabol Airport

OIZB 181300Z 11014KT CAVOK 34/04 Q1010
Report created 18. apr 15:00
wind 14 knots from ESE (110°) Clear sky Temperature 34° with dewpoint at 4° (Humidity 15.33%) Pressure 1010 hPa
No TAF available for Zabol Airport
Zabol Airport in Iran at 489m

Latest 5 airports